Terminal Aerodrome Forecast
Issued by NWS Louisville, KY

Home | Current Version | Previous Version | Text Only | Print | Product List | Glossary On
Versions: 1 2 3 4 5 6 7 8 9 10 11 12 13 14
316
FTUS43 KLMK 211837 AAA
TAFLEX
TAF AMD
KLEX 211837Z 2119/2218 27009KT 2SM -RADZ OVC007
     FM211930 31008KT 6SM -SHRA BR OVC017
     FM212030 32009KT P6SM VCSH BKN023
     FM212130 34008KT P6SM VCSH BKN035
     FM220100 VRB03KT P6SM SKC
     FM221300 34008KT P6SM FEW070=

USA.gov is the U.S. government's official web portal to all federal, state and local government web resources and services.